Погода Джоратна неделю

Апшеронский район, Азербайджан

20 - 26 апреля
  • 20апреля
    Сегодня
    +15°
    +23°
    Ясно и безоблачно
    ВремяПогодаТемператураВлажностьДавлениеВетер, м/сВероятность осадков
    01:00Ясно и безоблачно+16°C81 %758 мм2.6 м/с2 %
    04:00Ясно и безоблачно+17°C71 %758 мм5.0 м/с2 %
    07:00Ясно и безоблачно+16°C75 %759 мм5.1 м/с2 %
    10:00Ясно и безоблачно+20°C72 %760 мм5.7 м/с2 %
    13:00Ясно и безоблачно+23°C67 %759 мм4.7 м/с2 %
    16:00Ясно и безоблачно+22°C67 %758 мм2.3 м/с2 %
    19:00Практически безоблачно+20°C77 %758 мм1.0 м/с2 %
    22:00Ясно и безоблачно+16°C86 %757 мм1.6 м/с2 %
  • 21апреля
    Воскресенье
    +15°
    +28°
    Ясно и безоблачно
    ВремяПогодаТемператураВлажностьДавлениеВетер, м/сВероятность осадков
    01:00Ясно и безоблачно+17°C85 %757 мм3.3 м/с2 %
    04:00Ясно и безоблачно+16°C80 %756 мм3.7 м/с2 %
    07:00Ясно и безоблачно+17°C67 %756 мм4.0 м/с2 %
    10:00Ясно и безоблачно+25°C46 %756 мм5.5 м/с2 %
    13:00Ясно и безоблачно+28°C31 %755 мм7.0 м/с2 %
    16:00Ясно и безоблачно+27°C34 %754 мм8.1 м/с2 %
    19:00Небольшая облачность+22°C54 %755 мм7.4 м/с2 %
    22:00Ясно и безоблачно+19°C60 %756 мм6.2 м/с2 %
  • 22апреля
    Понедельник
    +16°
    +21°
    Небольшая облачность
    ВремяПогодаТемператураВлажностьДавлениеВетер, м/сВероятность осадков
    01:00Небольшая облачность+16°C74 %757 мм2.2 м/с2 %
    04:00Облачно с прояснениями+16°C71 %758 мм9.7 м/с2 %
    07:00Облачно с прояснениями+16°C79 %760 мм9.3 м/с2 %
    10:00Облачно с прояснениями+19°C72 %762 мм10.1 м/с10 %
    13:00Небольшая облачность+21°C66 %762 мм9.3 м/с12 %
    16:00Практически безоблачно+21°C63 %762 мм7.5 м/с6 %
    19:00Облачно с прояснениями+18°C70 %762 мм5.8 м/с6 %
    22:00Практически безоблачно+18°C67 %763 мм4.8 м/с7 %
  • 23апреля
    Вторник
    +13°
    +23°
    Ясно и безоблачно
    ВремяПогодаТемператураВлажностьДавлениеВетер, м/сВероятность осадков
    01:00Практически безоблачно+18°C61 %763 мм4.4 м/с7 %
    04:00Небольшая облачность+17°C68 %763 мм3.6 м/с3 %
    07:00Ясно и безоблачно+19°C61 %764 мм4.8 м/с3 %
    10:00Ясно и безоблачно+22°C53 %765 мм7.1 м/с2 %
    13:00Ясно и безоблачно+23°C50 %765 мм7.5 м/с2 %
    16:00Небольшая облачность+22°C56 %765 мм6.2 м/с2 %
    19:00Практически безоблачно+19°C65 %766 мм5.1 м/с2 %
    22:00Ясно и безоблачно+17°C66 %766 мм4.1 м/с2 %
  • 24апреля
    Среда
    +15°
    +28°
    Ясно и безоблачно
    ВремяПогодаТемператураВлажностьДавлениеВетер, м/сВероятность осадков
    01:00Ясно и безоблачно+15°C69 %766 мм3.1 м/с2 %
    04:00Ясно и безоблачно+14°C68 %765 мм2.0 м/с2 %
    07:00Ясно и безоблачно+16°C62 %765 мм1.7 м/с2 %
    10:00Ясно и безоблачно+25°C35 %765 мм3.3 м/с2 %
    13:00Ясно и безоблачно+28°C27 %763 мм6.3 м/с2 %
    16:00Ясно и безоблачно+26°C30 %762 мм8.2 м/с3 %
    19:00Ясно и безоблачно+22°C46 %762 мм7.4 м/с2 %
    22:00Практически безоблачно+18°C54 %762 мм6.5 м/с2 %
Мы используем cookies
Соглашаюсь